createdAt,value
2018-12-01T00:00:05.196Z,4.50
2018-12-01T00:02:41.600Z,4.44
2018-12-01T00:05:18.217Z,4.45
2018-12-01T00:07:55.195Z,4.44
2018-12-01T00:10:32.090Z,4.42
2018-12-01T00:13:08.360Z,4.36
2018-12-01T00:15:44.969Z,4.33
2018-12-01T00:18:21.431Z,4.33
2018-12-01T00:20:58.049Z,4.36
2018-12-01T00:23:34.588Z,4.34
2018-12-01T00:26:10.532Z,4.31
2018-12-01T00:28:46.918Z,4.29
2018-12-01T00:31:24.123Z,4.26
2018-12-01T00:33:59.859Z,4.29
2018-12-01T00:36:36.585Z,4.32
2018-12-01T00:39:13.158Z,4.42
2018-12-01T00:41:51.777Z,4.50
2018-12-01T00:44:27.605Z,4.58
2018-12-01T00:47:04.265Z,4.64
2018-12-01T00:49:40.652Z,4.65
2018-12-01T00:52:17.210Z,4.62
2018-12-01T00:54:53.570Z,4.63
2018-12-01T00:57:29.894Z,4.64
2018-12-01T01:00:11.481Z,4.63
2018-12-01T01:02:52.616Z,4.64
2018-12-01T01:05:32.782Z,4.69
2018-12-01T01:08:10.109Z,4.71
2018-12-01T01:10:46.450Z,4.71
2018-12-01T01:13:22.924Z,4.77
2018-12-01T01:16:00.343Z,4.81
2018-12-01T01:18:37.345Z,4.72
2018-12-01T01:21:13.843Z,4.69
2018-12-01T01:23:49.978Z,4.75
2018-12-01T01:26:26.401Z,4.81
2018-12-01T01:29:03.023Z,4.83
2018-12-01T01:31:39.214Z,4.86
2018-12-01T01:34:15.847Z,4.79
2018-12-01T01:36:52.791Z,4.80
2018-12-01T01:39:29.383Z,4.83
2018-12-01T01:42:06.310Z,4.77
2018-12-01T01:44:42.597Z,4.75
2018-12-01T01:47:19.013Z,4.72
2018-12-01T01:49:55.015Z,4.77
2018-12-01T01:52:31.519Z,4.85
2018-12-01T01:55:11.667Z,4.88
2018-12-01T01:57:47.932Z,4.92
2018-12-01T02:00:24.580Z,4.90
2018-12-01T02:03:00.471Z,4.89
2018-12-01T02:05:36.918Z,4.80
2018-12-01T02:08:13.553Z,4.82
2018-12-01T02:10:49.944Z,4.81
2018-12-01T02:13:26.499Z,4.84
2018-12-01T02:16:04.417Z,4.82
2018-12-01T02:18:41.312Z,4.81
2018-12-01T02:21:17.731Z,4.83
2018-12-01T02:23:53.970Z,4.83
2018-12-01T02:26:30.280Z,4.77
2018-12-01T02:29:06.640Z,4.76
2018-12-01T02:31:43.237Z,4.82
2018-12-01T02:34:20.051Z,4.81
2018-12-01T02:36:56.385Z,4.81
2018-12-01T02:39:33.249Z,4.82
2018-12-01T02:42:09.829Z,4.87
2018-12-01T02:45:12.309Z,4.88
2018-12-01T02:47:48.439Z,4.88
2018-12-01T02:50:30.161Z,4.91
2018-12-01T02:53:06.604Z,5.01
2018-12-01T02:55:43.015Z,5.04
2018-12-01T02:58:19.346Z,5.04
2018-12-01T03:00:56.122Z,5.07
2018-12-01T03:03:32.304Z,4.99
2018-12-01T03:06:09.059Z,4.94
2018-12-01T03:08:45.343Z,4.94
2018-12-01T03:11:21.561Z,4.85
2018-12-01T03:13:57.833Z,4.80
2018-12-01T03:16:34.456Z,4.78
2018-12-01T03:19:10.830Z,4.73
2018-12-01T03:21:47.659Z,4.68
2018-12-01T03:24:24.444Z,4.56
2018-12-01T03:27:00.903Z,4.46
2018-12-01T03:29:37.756Z,4.41
2018-12-01T03:32:14.469Z,4.26
2018-12-01T03:34:51.893Z,4.12
2018-12-01T03:37:28.713Z,4.03
2018-12-01T03:40:06.319Z,4.00
2018-12-01T03:42:42.934Z,3.85
2018-12-01T03:45:20.885Z,3.71
2018-12-01T03:47:57.342Z,3.43
2018-12-01T03:50:34.050Z,3.22
2018-12-01T03:53:11.982Z,3.13
2018-12-01T03:55:48.411Z,3.06
2018-12-01T03:58:25.048Z,2.95
2018-12-01T04:01:01.484Z,2.86
2018-12-01T04:03:38.050Z,2.95
2018-12-01T04:06:14.757Z,2.98
2018-12-01T04:08:51.454Z,2.98
2018-12-01T04:11:27.932Z,3.07
2018-12-01T04:14:04.768Z,3.11
2018-12-01T04:16:41.481Z,3.28
2018-12-01T04:19:17.820Z,3.32
2018-12-01T04:21:54.278Z,3.31
2018-12-01T04:24:30.536Z,3.33
2018-12-01T04:27:06.906Z,3.26
2018-12-01T04:29:43.346Z,3.21
2018-12-01T04:32:20.341Z,3.08
2018-12-01T04:34:56.673Z,3.04
2018-12-01T04:37:32.965Z,3.06
2018-12-01T04:40:10.469Z,3.14
2018-12-01T04:42:47.766Z,3.22
2018-12-01T04:45:23.961Z,3.23
2018-12-01T04:48:00.533Z,3.37
2018-12-01T04:50:36.914Z,3.37
2018-12-01T04:53:13.446Z,3.43
2018-12-01T04:55:49.800Z,3.40
2018-12-01T04:58:26.119Z,3.49
2018-12-01T05:01:02.083Z,3.43
2018-12-01T05:03:38.333Z,3.41
2018-12-01T05:06:14.858Z,3.41
2018-12-01T05:08:51.198Z,3.25
2018-12-01T05:11:28.074Z,3.09
2018-12-01T05:14:04.553Z,3.00
2018-12-01T05:16:41.002Z,3.06
2018-12-01T05:19:17.119Z,3.10
2018-12-01T05:21:53.777Z,3.12
2018-12-01T05:24:29.964Z,3.19
2018-12-01T05:27:06.692Z,3.26
2018-12-01T05:29:43.376Z,3.27
2018-12-01T05:32:19.983Z,3.36
2018-12-01T05:34:56.726Z,3.45
2018-12-01T05:37:33.477Z,3.48
2018-12-01T05:40:12.997Z,3.56
2018-12-01T05:42:49.470Z,3.59
2018-12-01T05:45:25.744Z,3.57
2018-12-01T05:48:02.236Z,3.56
2018-12-01T05:50:38.919Z,3.56
2018-12-01T05:53:15.468Z,3.55
2018-12-01T05:55:52.024Z,3.67
2018-12-01T05:58:28.487Z,3.68
2018-12-01T06:01:05.064Z,3.72
2018-12-01T06:03:41.803Z,3.77
2018-12-01T06:06:18.205Z,3.81
2018-12-01T06:08:54.557Z,3.79
2018-12-01T06:11:30.670Z,3.77
2018-12-01T06:14:07.083Z,3.79
2018-12-01T06:16:43.332Z,3.80
2018-12-01T06:19:19.851Z,3.79
2018-12-01T06:21:55.982Z,3.79
2018-12-01T06:24:33.321Z,3.77
2018-12-01T06:27:09.907Z,3.76
2018-12-01T06:29:46.287Z,3.77
2018-12-01T06:32:23.017Z,3.80
2018-12-01T06:34:54.421Z,3.87
2018-12-01T06:37:30.695Z,3.83
2018-12-01T06:40:12.143Z,3.78
2018-12-01T06:42:48.132Z,3.81
2018-12-01T06:45:24.321Z,3.89
2018-12-01T06:48:00.699Z,3.83
2018-12-01T06:50:37.165Z,3.75
2018-12-01T06:53:13.794Z,3.71
2018-12-01T06:55:50.219Z,3.69
2018-12-01T06:58:26.845Z,3.72
2018-12-01T07:01:03.393Z,3.77
2018-12-01T07:03:39.816Z,3.81
2018-12-01T07:06:16.260Z,3.87
2018-12-01T07:08:52.621Z,3.89
2018-12-01T07:11:28.569Z,3.99
2018-12-01T07:14:05.244Z,4.01
2018-12-01T07:16:41.665Z,4.07
2018-12-01T07:19:19.567Z,4.06
2018-12-01T07:21:55.258Z,4.05
2018-12-01T07:24:31.978Z,4.14
2018-12-01T07:27:08.477Z,4.24
2018-12-01T07:29:44.725Z,4.25
2018-12-01T07:32:21.299Z,4.28
2018-12-01T07:34:58.128Z,4.39
2018-12-01T07:37:34.482Z,4.39
2018-12-01T07:40:14.922Z,4.41
2018-12-01T07:42:51.642Z,4.45
2018-12-01T07:45:28.140Z,4.46
2018-12-01T07:48:04.656Z,4.52
2018-12-01T07:50:40.994Z,4.55
2018-12-01T07:53:17.499Z,4.64
2018-12-01T07:55:53.825Z,4.60
2018-12-01T07:58:30.189Z,4.51
2018-12-01T08:01:06.870Z,4.36
2018-12-01T08:03:43.301Z,4.23
2018-12-01T08:06:19.876Z,3.98
2018-12-01T08:08:56.191Z,3.90
2018-12-01T08:11:32.658Z,3.98
2018-12-01T08:14:09.257Z,3.92
2018-12-01T08:16:46.137Z,4.39
2018-12-01T08:19:23.352Z,6.05
2018-12-01T08:21:59.926Z,7.13
2018-12-01T08:24:36.428Z,8.30
2018-12-01T08:27:13.071Z,9.14
2018-12-01T08:29:49.426Z,10.29
2018-12-01T08:32:26.223Z,11.14
2018-12-01T08:35:02.539Z,9.78
2018-12-01T08:37:38.593Z,10.85
2018-12-01T08:40:17.016Z,9.50
2018-12-01T08:42:54.543Z,9.43
2018-12-01T08:45:31.146Z,10.87
2018-12-01T08:48:09.175Z,10.91
2018-12-01T08:50:46.363Z,11.53
2018-12-01T08:53:21.992Z,11.92
2018-12-01T08:55:58.659Z,11.86
2018-12-01T08:58:35.683Z,12.75
2018-12-01T09:01:12.371Z,13.64
2018-12-01T09:03:49.012Z,13.47
2018-12-01T09:06:26.020Z,14.21
2018-12-01T09:09:02.826Z,11.10
2018-12-01T09:11:39.066Z,9.72
2018-12-01T09:14:15.908Z,10.67
2018-12-01T09:16:52.367Z,13.09
2018-12-01T09:19:28.980Z,13.97
2018-12-01T09:22:05.821Z,12.17
2018-12-01T09:24:42.477Z,9.77
2018-12-01T09:27:22.472Z,9.44
2018-12-01T09:29:55.677Z,8.72
2018-12-01T09:32:31.866Z,9.29
2018-12-01T09:35:08.528Z,9.16
2018-12-01T09:37:45.106Z,8.07
2018-12-01T09:40:23.217Z,8.08
2018-12-01T09:42:59.920Z,8.34
2018-12-01T09:45:36.355Z,8.36
2018-12-01T09:48:13.229Z,7.71
2018-12-01T09:50:49.691Z,8.12
2018-12-01T09:53:26.327Z,8.52
2018-12-01T09:56:03.038Z,8.50
2018-12-01T09:58:39.376Z,7.12
2018-12-01T10:01:16.671Z,8.58
2018-12-01T10:03:53.491Z,9.53
2018-12-01T10:06:29.490Z,10.44
2018-12-01T10:09:08.820Z,11.29
2018-12-01T10:11:50.329Z,8.81
2018-12-01T10:14:21.266Z,7.84
2018-12-01T10:16:57.678Z,8.82
2018-12-01T10:19:34.043Z,8.10
2018-12-01T10:22:10.755Z,9.25
2018-12-01T10:24:48.095Z,9.17
2018-12-01T10:27:24.387Z,10.29
2018-12-01T10:30:00.659Z,8.47
2018-12-01T10:32:37.333Z,8.26
2018-12-01T10:35:18.098Z,8.81
2018-12-01T10:38:30.659Z,9.70
2018-12-01T10:41:07.308Z,11.11
2018-12-01T10:43:43.763Z,11.30
2018-12-01T10:46:20.199Z,12.66
2018-12-01T10:48:57.105Z,13.09
2018-12-01T10:51:33.670Z,13.38
2018-12-01T10:54:10.581Z,13.40
2018-12-01T10:56:47.781Z,13.63
2018-12-01T10:59:24.397Z,14.07
2018-12-01T11:02:06.102Z,13.69
2018-12-01T11:04:43.147Z,13.83
2018-12-01T11:07:20.424Z,14.63
2018-12-01T11:09:57.882Z,14.74
2018-12-01T11:12:35.102Z,14.82
2018-12-01T11:15:11.955Z,14.44
2018-12-01T11:17:48.407Z,14.80
2018-12-01T11:20:25.230Z,15.62
2018-12-01T11:23:01.585Z,15.21
2018-12-01T11:25:38.309Z,15.64
2018-12-01T11:28:15.218Z,14.58
2018-12-01T11:30:51.902Z,15.27
2018-12-01T11:33:28.561Z,14.53
2018-12-01T11:36:05.226Z,13.42
2018-12-01T11:38:41.666Z,12.73
2018-12-01T11:41:18.945Z,12.35
2018-12-01T11:43:56.447Z,12.86
2018-12-01T11:46:33.174Z,12.25
2018-12-01T11:49:10.147Z,12.03
2018-12-01T11:51:48.349Z,12.39
2018-12-01T11:54:25.155Z,12.79
2018-12-01T11:57:02.098Z,13.34
2018-12-01T11:59:39.213Z,13.79
2018-12-01T12:02:17.289Z,13.90
2018-12-01T12:04:54.547Z,13.58
2018-12-01T12:07:47.449Z,13.65
2018-12-01T12:10:24.619Z,13.33
2018-12-01T12:13:01.469Z,13.74
2018-12-01T12:15:38.161Z,14.44
2018-12-01T12:18:15.567Z,14.85
2018-12-01T12:20:52.691Z,15.87
2018-12-01T12:23:29.661Z,13.72
2018-12-01T12:26:06.678Z,12.95
2018-12-01T12:28:43.801Z,13.57
2018-12-01T12:31:21.056Z,12.16
2018-12-01T12:33:58.691Z,11.22
2018-12-01T12:36:36.833Z,9.50
2018-12-01T12:39:13.162Z,9.56
2018-12-01T12:41:49.785Z,9.81
2018-12-01T12:44:26.400Z,9.92
2018-12-01T12:47:02.960Z,9.38
2018-12-01T12:49:39.501Z,9.33
2018-12-01T12:52:16.295Z,9.21
2018-12-01T12:54:52.965Z,9.16
2018-12-01T12:57:29.415Z,9.30
2018-12-01T13:00:10.052Z,9.80
2018-12-01T13:02:51.326Z,9.63
2018-12-01T13:05:32.637Z,9.65
2018-12-01T13:08:10.409Z,9.68
2018-12-01T13:10:46.937Z,9.54
2018-12-01T13:13:23.894Z,9.30
2018-12-01T13:16:00.499Z,9.41
2018-12-01T13:18:36.687Z,9.38
2018-12-01T13:21:13.072Z,8.62
2018-12-01T13:23:49.721Z,8.90
2018-12-01T13:26:26.208Z,9.12
2018-12-01T13:29:02.999Z,9.29
2018-12-01T13:31:39.623Z,9.30
2018-12-01T13:34:16.267Z,9.33
2018-12-01T13:36:53.442Z,9.40
2018-12-01T13:39:29.948Z,9.44
2018-12-01T13:42:07.175Z,9.54
2018-12-01T13:44:43.552Z,9.34
2018-12-01T13:47:19.973Z,9.09
2018-12-01T13:49:56.362Z,9.03
2018-12-01T13:52:32.836Z,9.01
2018-12-01T13:55:10.580Z,9.06
2018-12-01T13:57:47.571Z,9.05
2018-12-01T14:00:26.598Z,9.04
2018-12-01T14:03:02.927Z,9.07
2018-12-01T14:05:40.373Z,8.92
2018-12-01T14:08:17.074Z,8.72
2018-12-01T14:10:53.847Z,8.60
2018-12-01T14:13:30.525Z,8.45
2018-12-01T14:16:07.187Z,8.28
2018-12-01T14:18:43.868Z,7.83
2018-12-01T14:21:20.237Z,7.88
2018-12-01T14:23:56.928Z,7.84
2018-12-01T14:26:33.589Z,7.73
2018-12-01T14:29:10.269Z,7.72
2018-12-01T14:31:46.887Z,7.77
2018-12-01T14:34:23.505Z,7.62
2018-12-01T14:37:00.196Z,7.66
2018-12-01T14:39:36.892Z,7.59
2018-12-01T14:42:13.474Z,7.50
2018-12-01T14:44:49.488Z,7.38
2018-12-01T14:47:25.265Z,7.29
2018-12-01T14:50:01.576Z,7.15
2018-12-01T14:52:37.941Z,7.12
2018-12-01T14:55:17.000Z,6.96
2018-12-01T14:57:53.457Z,6.90
2018-12-01T15:00:29.870Z,7.02
2018-12-01T15:03:06.783Z,6.99
2018-12-01T15:05:43.672Z,7.08
2018-12-01T15:08:20.630Z,6.95
2018-12-01T15:10:57.405Z,6.88
2018-12-01T15:13:33.821Z,6.77
2018-12-01T15:16:10.716Z,6.63
2018-12-01T15:18:47.217Z,6.56
2018-12-01T15:21:23.920Z,6.42
2018-12-01T15:24:00.720Z,6.32
2018-12-01T15:26:37.076Z,6.18
2018-12-01T15:29:13.648Z,6.13
2018-12-01T15:31:50.403Z,5.98
2018-12-01T15:34:27.692Z,5.80
2018-12-01T15:37:04.770Z,5.69
2018-12-01T15:39:41.313Z,5.67
2018-12-01T15:42:17.890Z,5.65
2018-12-01T15:44:54.207Z,5.67
2018-12-01T15:47:31.691Z,5.62
2018-12-01T15:50:14.737Z,5.63
2018-12-01T15:52:55.097Z,5.56
2018-12-01T15:55:32.128Z,5.49
2018-12-01T15:58:09.722Z,5.34
2018-12-01T16:00:46.806Z,5.27
2018-12-01T16:03:23.306Z,5.16
2018-12-01T16:05:59.834Z,5.15
2018-12-01T16:08:36.258Z,5.13
2018-12-01T16:11:12.666Z,5.14
2018-12-01T16:13:49.105Z,5.18
2018-12-01T16:16:25.120Z,5.18
2018-12-01T16:19:01.323Z,5.18
2018-12-01T16:21:37.533Z,5.16
2018-12-01T16:24:13.664Z,5.09
2018-12-01T16:26:49.437Z,5.00
2018-12-01T16:29:25.173Z,4.99
2018-12-01T16:32:01.071Z,4.96
2018-12-01T16:34:37.155Z,5.00
2018-12-01T16:37:13.006Z,5.00
2018-12-01T16:39:48.956Z,4.97
2018-12-01T16:42:24.913Z,4.98
2018-12-01T16:45:00.863Z,4.93
2018-12-01T16:47:36.817Z,4.91
2018-12-01T16:50:15.645Z,4.95
2018-12-01T16:52:51.988Z,5.02
2018-12-01T16:55:27.808Z,4.96
2018-12-01T16:58:03.932Z,4.93
2018-12-01T17:00:39.907Z,4.88
2018-12-01T17:03:16.203Z,4.85
2018-12-01T17:05:56.268Z,4.79
2018-12-01T17:08:32.031Z,4.78
2018-12-01T17:11:09.483Z,4.74
2018-12-01T17:13:45.528Z,4.74
2018-12-01T17:16:21.689Z,4.87
2018-12-01T17:18:57.613Z,4.85
2018-12-01T17:21:33.596Z,4.91
2018-12-01T17:24:09.606Z,4.82
2018-12-01T17:26:45.362Z,4.97
2018-12-01T17:29:21.329Z,5.08
2018-12-01T17:31:57.081Z,5.05
2018-12-01T17:34:33.101Z,5.09
2018-12-01T17:37:09.148Z,4.98
2018-12-01T17:39:45.023Z,4.88
2018-12-01T17:42:21.007Z,4.85
2018-12-01T17:44:56.871Z,4.98
2018-12-01T17:47:33.142Z,5.11
2018-12-01T17:50:14.434Z,5.13
2018-12-01T17:52:53.777Z,5.16
2018-12-01T17:55:31.159Z,5.11
2018-12-01T17:58:11.068Z,5.16
2018-12-01T18:00:46.904Z,5.08
2018-12-01T18:03:22.854Z,5.01
2018-12-01T18:05:58.833Z,4.97
2018-12-01T18:08:35.183Z,5.03
2018-12-01T18:11:12.187Z,5.11
2018-12-01T18:13:47.973Z,5.08
2018-12-01T18:16:23.846Z,5.12
2018-12-01T18:18:59.684Z,5.19
2018-12-01T18:21:35.568Z,5.19
2018-12-01T18:24:11.537Z,5.28
2018-12-01T18:26:47.412Z,5.18
2018-12-01T18:29:23.392Z,5.17
2018-12-01T18:31:59.217Z,5.11
2018-12-01T18:34:35.065Z,5.05
2018-12-01T18:37:11.564Z,4.99
2018-12-01T18:39:47.409Z,4.98
2018-12-01T18:42:23.505Z,4.98
2018-12-01T18:44:59.253Z,5.07
2018-12-01T18:47:35.275Z,5.01
2018-12-01T18:50:14.787Z,5.10
2018-12-01T18:53:06.828Z,5.11
2018-12-01T18:55:56.382Z,5.09
2018-12-01T18:58:32.295Z,5.10
2018-12-01T19:01:10.386Z,5.06
2018-12-01T19:03:46.131Z,4.99
2018-12-01T19:06:22.181Z,4.95
2018-12-01T19:08:58.228Z,4.88
2018-12-01T19:11:34.091Z,4.90
2018-12-01T19:14:10.101Z,4.90
2018-12-01T19:16:45.930Z,4.98
2018-12-01T19:19:21.989Z,5.00
2018-12-01T19:21:58.225Z,5.16
2018-12-01T19:24:34.145Z,5.21
2018-12-01T19:27:10.064Z,5.37
2018-12-01T19:29:45.930Z,5.20
2018-12-01T19:32:21.880Z,5.16
2018-12-01T19:34:57.699Z,5.23
2018-12-01T19:37:33.591Z,5.19
2018-12-01T19:40:15.239Z,5.21
2018-12-01T19:42:51.338Z,5.24
2018-12-01T19:45:27.508Z,5.29
2018-12-01T19:48:03.375Z,5.30
2018-12-01T19:50:41.717Z,5.33
2018-12-01T19:53:18.968Z,5.26
2018-12-01T19:55:55.586Z,5.23
2018-12-01T19:58:31.680Z,5.28
2018-12-01T20:01:07.969Z,5.30
2018-12-01T20:03:43.765Z,5.25
2018-12-01T20:06:19.676Z,5.27
2018-12-01T20:08:55.408Z,5.24
2018-12-01T21:01:19.735Z,5.85
2018-12-01T21:03:55.425Z,6.00
2018-12-01T21:06:31.210Z,5.97
2018-12-01T21:09:10.282Z,5.99
2018-12-01T21:11:46.748Z,5.72
2018-12-01T21:14:29.424Z,5.61
2018-12-01T21:17:09.597Z,5.42
2018-12-01T21:19:46.619Z,5.31
2018-12-01T21:23:14.018Z,5.41
2018-12-01T21:25:49.904Z,5.43
2018-12-01T21:28:25.714Z,5.50
2018-12-01T21:31:01.761Z,5.54
2018-12-01T21:33:37.824Z,5.53
2018-12-01T21:36:13.835Z,5.55
2018-12-01T21:38:49.549Z,5.73
2018-12-01T21:41:25.388Z,5.88
2018-12-01T21:44:01.629Z,6.14
2018-12-01T21:46:37.587Z,6.44
2018-12-01T21:49:13.663Z,6.69
2018-12-01T21:51:49.466Z,6.81
2018-12-01T21:54:25.370Z,7.01
2018-12-01T21:57:01.974Z,7.30
2018-12-01T21:59:37.093Z,7.27
2018-12-01T22:02:12.984Z,7.42
2018-12-01T22:04:48.764Z,7.75
2018-12-01T22:07:24.585Z,7.89
2018-12-01T22:10:00.489Z,7.81
2018-12-01T22:12:36.250Z,7.84
2018-12-01T22:15:20.994Z,7.89
2018-12-01T22:17:56.885Z,7.82
2018-12-01T22:20:32.969Z,7.89
2018-12-01T22:23:09.037Z,7.93
2018-12-01T22:25:44.995Z,7.93
2018-12-01T22:28:20.951Z,7.87
2018-12-01T22:30:57.872Z,8.02
2018-12-01T22:33:33.841Z,8.12
2018-12-01T22:36:09.680Z,8.01
2018-12-01T22:38:45.496Z,8.07
2018-12-01T22:41:21.405Z,8.19
